sensor_id;sensor_type;location;lat;lon;timestamp;temperature;humidity
38325;DHT22;24126;52.672;13.622;2023-08-01T00:00:43;22.70;76.40
38325;DHT22;24126;52.672;13.622;2023-08-01T00:03:11;22.70;76.40
38325;DHT22;24126;52.672;13.622;2023-08-01T00:05:39;22.70;76.50
38325;DHT22;24126;52.672;13.622;2023-08-01T00:08:10;22.70;76.50
38325;DHT22;24126;52.672;13.622;2023-08-01T00:10:39;22.70;76.60
38325;DHT22;24126;52.672;13.622;2023-08-01T00:13:07;22.70;76.50
38325;DHT22;24126;52.672;13.622;2023-08-01T00:15:34;22.70;76.70
38325;DHT22;24126;52.672;13.622;2023-08-01T00:18:01;22.70;76.70
38325;DHT22;24126;52.672;13.622;2023-08-01T00:20:28;22.70;76.70
38325;DHT22;24126;52.672;13.622;2023-08-01T00:22:55;22.70;76.70
38325;DHT22;24126;52.672;13.622;2023-08-01T00:25:23;22.60;76.70
38325;DHT22;24126;52.672;13.622;2023-08-01T00:27:50;22.70;76.80
38325;DHT22;24126;52.672;13.622;2023-08-01T00:30:17;22.60;76.90
38325;DHT22;24126;52.672;13.622;2023-08-01T00:32:44;22.60;77.00
38325;DHT22;24126;52.672;13.622;2023-08-01T00:35:11;22.60;77.20
38325;DHT22;24126;52.672;13.622;2023-08-01T00:37:38;22.60;77.30
38325;DHT22;24126;52.672;13.622;2023-08-01T00:40:05;22.60;77.40
38325;DHT22;24126;52.672;13.622;2023-08-01T00:42:35;22.60;77.50
38325;DHT22;24126;52.672;13.622;2023-08-01T00:45:02;22.60;77.60
38325;DHT22;24126;52.672;13.622;2023-08-01T00:47:29;22.50;77.60
38325;DHT22;24126;52.672;13.622;2023-08-01T00:49:56;22.50;77.80
38325;DHT22;24126;52.672;13.622;2023-08-01T00:52:28;22.50;77.90
38325;DHT22;24126;52.672;13.622;2023-08-01T00:54:56;22.40;78.00
38325;DHT22;24126;52.672;13.622;2023-08-01T00:57:23;22.40;78.30
38325;DHT22;24126;52.672;13.622;2023-08-01T00:59:50;22.30;78.60
38325;DHT22;24126;52.672;13.622;2023-08-01T01:02:17;22.30;78.90
38325;DHT22;24126;52.672;13.622;2023-08-01T01:04:44;22.30;79.00
38325;DHT22;24126;52.672;13.622;2023-08-01T01:07:12;22.20;79.20
38325;DHT22;24126;52.672;13.622;2023-08-01T01:09:41;22.20;79.30
38325;DHT22;24126;52.672;13.622;2023-08-01T01:12:09;22.20;79.30
38325;DHT22;24126;52.672;13.622;2023-08-01T01:14:36;22.20;80.00
38325;DHT22;24126;52.672;13.622;2023-08-01T01:17:04;22.20;79.30
38325;DHT22;24126;52.672;13.622;2023-08-01T01:19:31;22.20;79.50
38325;DHT22;24126;52.672;13.622;2023-08-01T01:21:58;22.20;79.60
38325;DHT22;24126;52.672;13.622;2023-08-01T01:24:26;22.20;79.60
38325;DHT22;24126;52.672;13.622;2023-08-01T01:26:54;22.20;79.70
38325;DHT22;24126;52.672;13.622;2023-08-01T01:29:21;22.20;79.70
38325;DHT22;24126;52.672;13.622;2023-08-01T01:31:49;22.20;79.70
38325;DHT22;24126;52.672;13.622;2023-08-01T01:34:18;22.20;79.70
38325;DHT22;24126;52.672;13.622;2023-08-01T01:36:45;22.20;79.60
38325;DHT22;24126;52.672;13.622;2023-08-01T01:39:12;22.20;79.60
38325;DHT22;24126;52.672;13.622;2023-08-01T01:41:39;22.20;79.70
38325;DHT22;24126;52.672;13.622;2023-08-01T01:44:06;22.10;79.70
38325;DHT22;24126;52.672;13.622;2023-08-01T01:46:33;22.10;79.80
38325;DHT22;24126;52.672;13.622;2023-08-01T01:49:00;22.10;79.90
38325;DHT22;24126;52.672;13.622;2023-08-01T01:51:28;22.10;80.00
38325;DHT22;24126;52.672;13.622;2023-08-01T01:53:56;22.10;80.00
38325;DHT22;24126;52.672;13.622;2023-08-01T01:56:23;22.20;80.10
38325;DHT22;24126;52.672;13.622;2023-08-01T01:58:50;22.20;80.00
38325;DHT22;24126;52.672;13.622;2023-08-01T02:01:17;22.20;80.00
38325;DHT22;24126;52.672;13.622;2023-08-01T02:03:44;22.20;80.00
38325;DHT22;24126;52.672;13.622;2023-08-01T02:06:13;22.20;80.00
38325;DHT22;24126;52.672;13.622;2023-08-01T02:08:40;22.20;80.10
38325;DHT22;24126;52.672;13.622;2023-08-01T02:11:07;22.20;80.10
38325;DHT22;24126;52.672;13.622;2023-08-01T02:13:35;22.20;80.20
38325;DHT22;24126;52.672;13.622;2023-08-01T02:16:02;22.20;80.20
38325;DHT22;24126;52.672;13.622;2023-08-01T02:18:29;22.20;80.20
38325;DHT22;24126;52.672;13.622;2023-08-01T02:20:57;22.20;80.20
38325;DHT22;24126;52.672;13.622;2023-08-01T02:23:24;22.20;80.30
38325;DHT22;24126;52.672;13.622;2023-08-01T02:25:51;22.20;80.40
38325;DHT22;24126;52.672;13.622;2023-08-01T02:28:18;22.10;80.40
38325;DHT22;24126;52.672;13.622;2023-08-01T02:30:46;22.10;80.50
38325;DHT22;24126;52.672;13.622;2023-08-01T02:33:13;22.10;80.50
38325;DHT22;24126;52.672;13.622;2023-08-01T02:35:40;22.10;80.60
38325;DHT22;24126;52.672;13.622;2023-08-01T02:38:07;22.10;80.70
38325;DHT22;24126;52.672;13.622;2023-08-01T02:40:36;22.10;80.70
38325;DHT22;24126;52.672;13.622;2023-08-01T02:43:03;22.10;80.70
38325;DHT22;24126;52.672;13.622;2023-08-01T02:45:30;22.10;80.80
38325;DHT22;24126;52.672;13.622;2023-08-01T02:47:57;22.10;80.80
38325;DHT22;24126;52.672;13.622;2023-08-01T02:50:25;22.10;80.90
38325;DHT22;24126;52.672;13.622;2023-08-01T02:52:52;22.10;81.00
38325;DHT22;24126;52.672;13.622;2023-08-01T02:55:19;22.10;81.20
38325;DHT22;24126;52.672;13.622;2023-08-01T02:57:46;22.10;81.10
38325;DHT22;24126;52.672;13.622;2023-08-01T03:00:13;22.10;81.00
38325;DHT22;24126;52.672;13.622;2023-08-01T03:02:43;22.10;81.00
38325;DHT22;24126;52.672;13.622;2023-08-01T03:05:10;22.10;81.10
38325;DHT22;24126;52.672;13.622;2023-08-01T03:07:38;22.10;81.00
38325;DHT22;24126;52.672;13.622;2023-08-01T03:10:05;22.10;81.10
38325;DHT22;24126;52.672;13.622;2023-08-01T03:12:32;22.10;81.20
38325;DHT22;24126;52.672;13.622;2023-08-01T03:15:00;22.10;81.30
38325;DHT22;24126;52.672;13.622;2023-08-01T03:17:27;22.10;81.30
38325;DHT22;24126;52.672;13.622;2023-08-01T03:19:54;22.10;81.30
38325;DHT22;24126;52.672;13.622;2023-08-01T03:22:21;22.10;81.50
38325;DHT22;24126;52.672;13.622;2023-08-01T03:24:49;22.00;81.80
38325;DHT22;24126;52.672;13.622;2023-08-01T03:27:16;22.00;81.50
38325;DHT22;24126;52.672;13.622;2023-08-01T03:29:43;22.00;81.40
38325;DHT22;24126;52.672;13.622;2023-08-01T03:32:10;22.00;81.50
38325;DHT22;24126;52.672;13.622;2023-08-01T03:34:37;22.00;81.70
38325;DHT22;24126;52.672;13.622;2023-08-01T03:37:07;22.00;81.70
38325;DHT22;24126;52.672;13.622;2023-08-01T03:39:34;22.00;81.70
38325;DHT22;24126;52.672;13.622;2023-08-01T03:42:01;22.00;81.70
38325;DHT22;24126;52.672;13.622;2023-08-01T03:44:28;22.10;81.70
38325;DHT22;24126;52.672;13.622;2023-08-01T03:46:55;22.10;81.60
38325;DHT22;24126;52.672;13.622;2023-08-01T03:49:22;22.10;81.50
38325;DHT22;24126;52.672;13.622;2023-08-01T03:51:49;22.10;81.50
38325;DHT22;24126;52.672;13.622;2023-08-01T03:54:17;22.10;81.60
38325;DHT22;24126;52.672;13.622;2023-08-01T03:56:44;22.10;81.60
38325;DHT22;24126;52.672;13.622;2023-08-01T03:59:12;22.10;81.60
38325;DHT22;24126;52.672;13.622;2023-08-01T04:01:40;22.00;81.70
38325;DHT22;24126;52.672;13.622;2023-08-01T04:04:07;22.10;81.80
38325;DHT22;24126;52.672;13.622;2023-08-01T04:06:34;22.10;81.90
38325;DHT22;24126;52.672;13.622;2023-08-01T04:09:02;22.10;81.90
38325;DHT22;24126;52.672;13.622;2023-08-01T04:11:29;22.10;81.80
38325;DHT22;24126;52.672;13.622;2023-08-01T04:13:56;22.10;81.80
38325;DHT22;24126;52.672;13.622;2023-08-01T04:16:23;22.10;81.80
38325;DHT22;24126;52.672;13.622;2023-08-01T04:18:50;22.10;81.80
38325;DHT22;24126;52.672;13.622;2023-08-01T04:21:18;22.10;81.90
38325;DHT22;24126;52.672;13.622;2023-08-01T04:23:49;22.10;81.90
38325;DHT22;24126;52.672;13.622;2023-08-01T04:26:16;22.10;82.00
38325;DHT22;24126;52.672;13.622;2023-08-01T04:28:43;22.10;82.00
38325;DHT22;24126;52.672;13.622;2023-08-01T04:31:10;22.20;82.00
38325;DHT22;24126;52.672;13.622;2023-08-01T04:33:37;22.20;82.00
38325;DHT22;24126;52.672;13.622;2023-08-01T04:36:04;22.20;81.90
38325;DHT22;24126;52.672;13.622;2023-08-01T04:38:31;22.30;81.80
38325;DHT22;24126;52.672;13.622;2023-08-01T04:40:58;22.30;81.90
38325;DHT22;24126;52.672;13.622;2023-08-01T04:43:26;22.30;81.90
38325;DHT22;24126;52.672;13.622;2023-08-01T04:45:53;22.30;81.90
38325;DHT22;24126;52.672;13.622;2023-08-01T04:48:20;22.30;82.00
38325;DHT22;24126;52.672;13.622;2023-08-01T04:50:47;22.30;82.00
38325;DHT22;24126;52.672;13.622;2023-08-01T04:53:14;22.30;82.00
38325;DHT22;24126;52.672;13.622;2023-08-01T04:55:41;22.30;81.80
38325;DHT22;24126;52.672;13.622;2023-08-01T04:58:08;22.40;81.80
38325;DHT22;24126;52.672;13.622;2023-08-01T05:00:35;22.40;81.70
38325;DHT22;24126;52.672;13.622;2023-08-01T05:03:02;22.40;81.60
38325;DHT22;24126;52.672;13.622;2023-08-01T05:05:29;22.40;81.60
38325;DHT22;24126;52.672;13.622;2023-08-01T05:07:56;22.30;81.60
38325;DHT22;24126;52.672;13.622;2023-08-01T05:10:23;22.40;81.50
38325;DHT22;24126;52.672;13.622;2023-08-01T05:12:50;22.30;81.50
38325;DHT22;24126;52.672;13.622;2023-08-01T05:15:17;22.30;81.70
38325;DHT22;24126;52.672;13.622;2023-08-01T05:17:44;22.30;81.80
38325;DHT22;24126;52.672;13.622;2023-08-01T05:20:11;22.30;81.80
38325;DHT22;24126;52.672;13.622;2023-08-01T05:22:39;22.30;81.70
38325;DHT22;24126;52.672;13.622;2023-08-01T05:25:06;22.40;81.70
38325;DHT22;24126;52.672;13.622;2023-08-01T05:27:33;22.40;81.50
38325;DHT22;24126;52.672;13.622;2023-08-01T05:30:00;22.40;81.50
38325;DHT22;24126;52.672;13.622;2023-08-01T05:32:27;22.40;81.50
38325;DHT22;24126;52.672;13.622;2023-08-01T05:34:54;22.50;81.50
38325;DHT22;24126;52.672;13.622;2023-08-01T05:37:21;22.40;81.50
38325;DHT22;24126;52.672;13.622;2023-08-01T05:39:48;22.50;81.50
38325;DHT22;24126;52.672;13.622;2023-08-01T05:42:15;22.40;81.50
38325;DHT22;24126;52.672;13.622;2023-08-01T05:44:43;22.50;81.50
38325;DHT22;24126;52.672;13.622;2023-08-01T05:47:10;22.50;81.50
38325;DHT22;24126;52.672;13.622;2023-08-01T05:49:37;22.60;81.50
38325;DHT22;24126;52.672;13.622;2023-08-01T05:52:04;22.60;81.50
38325;DHT22;24126;52.672;13.622;2023-08-01T05:54:31;22.60;81.40
38325;DHT22;24126;52.672;13.622;2023-08-01T05:56:58;22.60;81.40
38325;DHT22;24126;52.672;13.622;2023-08-01T05:59:25;22.60;81.50
38325;DHT22;24126;52.672;13.622;2023-08-01T06:01:52;22.70;81.50
38325;DHT22;24126;52.672;13.622;2023-08-01T06:04:19;22.70;81.30
38325;DHT22;24126;52.672;13.622;2023-08-01T06:06:46;22.70;81.20
38325;DHT22;24126;52.672;13.622;2023-08-01T06:09:13;22.70;81.20
38325;DHT22;24126;52.672;13.622;2023-08-01T06:11:40;22.70;81.10
38325;DHT22;24126;52.672;13.622;2023-08-01T06:14:08;22.80;81.30
38325;DHT22;24126;52.672;13.622;2023-08-01T06:16:36;22.70;81.20
38325;DHT22;24126;52.672;13.622;2023-08-01T06:19:03;22.80;81.30
38325;DHT22;24126;52.672;13.622;2023-08-01T06:21:31;22.70;81.20
38325;DHT22;24126;52.672;13.622;2023-08-01T06:23:58;22.80;81.30
38325;DHT22;24126;52.672;13.622;2023-08-01T06:26:25;22.80;81.20
38325;DHT22;24126;52.672;13.622;2023-08-01T06:28:52;22.90;81.10
38325;DHT22;24126;52.672;13.622;2023-08-01T06:31:20;22.80;81.00
38325;DHT22;24126;52.672;13.622;2023-08-01T06:33:47;22.90;81.10
38325;DHT22;24126;52.672;13.622;2023-08-01T06:36:14;22.80;81.10
38325;DHT22;24126;52.672;13.622;2023-08-01T06:38:42;22.80;81.10
38325;DHT22;24126;52.672;13.622;2023-08-01T06:41:09;22.90;81.20
38325;DHT22;24126;52.672;13.622;2023-08-01T06:43:36;22.90;81.10
38325;DHT22;24126;52.672;13.622;2023-08-01T06:46:04;22.90;80.90
38325;DHT22;24126;52.672;13.622;2023-08-01T06:48:31;22.90;80.90
38325;DHT22;24126;52.672;13.622;2023-08-01T06:51:00;22.90;80.80
38325;DHT22;24126;52.672;13.622;2023-08-01T06:53:28;22.90;80.90
38325;DHT22;24126;52.672;13.622;2023-08-01T06:55:55;22.90;80.90
38325;DHT22;24126;52.672;13.622;2023-08-01T06:58:22;22.90;80.80
38325;DHT22;24126;52.672;13.622;2023-08-01T07:00:49;22.90;80.80
38325;DHT22;24126;52.672;13.622;2023-08-01T07:03:16;23.00;80.90
38325;DHT22;24126;52.672;13.622;2023-08-01T07:05:43;22.90;81.10
38325;DHT22;24126;52.672;13.622;2023-08-01T07:08:10;22.90;81.00
38325;DHT22;24126;52.672;13.622;2023-08-01T07:10:37;22.90;81.10
38325;DHT22;24126;52.672;13.622;2023-08-01T07:13:04;22.90;81.10
38325;DHT22;24126;52.672;13.622;2023-08-01T07:15:32;23.00;81.00
38325;DHT22;24126;52.672;13.622;2023-08-01T07:17:59;23.00;81.00
38325;DHT22;24126;52.672;13.622;2023-08-01T07:20:26;23.00;80.90
38325;DHT22;24126;52.672;13.622;2023-08-01T07:22:53;23.00;80.80
38325;DHT22;24126;52.672;13.622;2023-08-01T07:25:20;23.00;80.70
38325;DHT22;24126;52.672;13.622;2023-08-01T07:27:48;23.10;80.90
38325;DHT22;24126;52.672;13.622;2023-08-01T07:30:15;23.10;80.90
38325;DHT22;24126;52.672;13.622;2023-08-01T07:32:42;23.10;80.90
38325;DHT22;24126;52.672;13.622;2023-08-01T07:35:09;23.20;80.80
38325;DHT22;24126;52.672;13.622;2023-08-01T07:37:37;23.20;80.80
38325;DHT22;24126;52.672;13.622;2023-08-01T07:40:07;23.20;80.70
38325;DHT22;24126;52.672;13.622;2023-08-01T07:42:35;23.30;80.90
38325;DHT22;24126;52.672;13.622;2023-08-01T07:45:02;23.40;80.90
38325;DHT22;24126;52.672;13.622;2023-08-01T07:47:29;23.40;80.70
38325;DHT22;24126;52.672;13.622;2023-08-01T07:49:56;23.40;80.60
38325;DHT22;24126;52.672;13.622;2023-08-01T07:52:23;23.60;80.70
38325;DHT22;24126;52.672;13.622;2023-08-01T07:54:51;23.70;80.30
38325;DHT22;24126;52.672;13.622;2023-08-01T07:57:19;23.80;80.10
38325;DHT22;24126;52.672;13.622;2023-08-01T07:59:46;23.80;79.90
38325;DHT22;24126;52.672;13.622;2023-08-01T08:02:13;23.90;79.70
38325;DHT22;24126;52.672;13.622;2023-08-01T08:04:40;24.00;79.60
38325;DHT22;24126;52.672;13.622;2023-08-01T08:07:07;24.10;79.20
38325;DHT22;24126;52.672;13.622;2023-08-01T08:09:34;24.10;79.10
38325;DHT22;24126;52.672;13.622;2023-08-01T08:12:01;24.20;79.00
38325;DHT22;24126;52.672;13.622;2023-08-01T08:14:29;24.20;79.00
38325;DHT22;24126;52.672;13.622;2023-08-01T08:16:56;24.30;78.80
38325;DHT22;24126;52.672;13.622;2023-08-01T08:19:23;24.40;78.90
38325;DHT22;24126;52.672;13.622;2023-08-01T08:21:51;24.40;78.60
38325;DHT22;24126;52.672;13.622;2023-08-01T08:24:18;24.40;78.50
38325;DHT22;24126;52.672;13.622;2023-08-01T08:26:45;24.50;78.10
38325;DHT22;24126;52.672;13.622;2023-08-01T08:29:12;24.60;78.10
38325;DHT22;24126;52.672;13.622;2023-08-01T08:31:39;24.60;78.00
38325;DHT22;24126;52.672;13.622;2023-08-01T08:34:06;24.70;77.90
38325;DHT22;24126;52.672;13.622;2023-08-01T08:36:33;24.80;77.60
38325;DHT22;24126;52.672;13.622;2023-08-01T08:39:00;24.80;77.40
38325;DHT22;24126;52.672;13.622;2023-08-01T08:41:29;24.90;77.20
38325;DHT22;24126;52.672;13.622;2023-08-01T08:43:57;24.90;77.10
38325;DHT22;24126;52.672;13.622;2023-08-01T08:46:26;24.90;77.10
38325;DHT22;24126;52.672;13.622;2023-08-01T08:48:57;24.90;76.80
38325;DHT22;24126;52.672;13.622;2023-08-01T08:51:26;24.90;76.40
38325;DHT22;24126;52.672;13.622;2023-08-01T08:53:54;24.90;76.40
38325;DHT22;24126;52.672;13.622;2023-08-01T08:56:21;24.80;76.40
38325;DHT22;24126;52.672;13.622;2023-08-01T08:58:49;24.80;76.60
38325;DHT22;24126;52.672;13.622;2023-08-01T09:01:17;24.80;76.70
38325;DHT22;24126;52.672;13.622;2023-08-01T09:03:44;24.90;77.00
38325;DHT22;24126;52.672;13.622;2023-08-01T09:06:12;24.90;76.90
38325;DHT22;24126;52.672;13.622;2023-08-01T09:08:41;25.00;77.00
38325;DHT22;24126;52.672;13.622;2023-08-01T09:11:10;25.20;76.80
38325;DHT22;24126;52.672;13.622;2023-08-01T09:13:37;25.30;76.70
38325;DHT22;24126;52.672;13.622;2023-08-01T09:16:04;25.40;76.20
38325;DHT22;24126;52.672;13.622;2023-08-01T09:18:33;25.40;75.90
38325;DHT22;24126;52.672;13.622;2023-08-01T09:21:00;25.40;75.50
38325;DHT22;24126;52.672;13.622;2023-08-01T09:23:28;25.50;75.40
38325;DHT22;24126;52.672;13.622;2023-08-01T09:25:56;25.50;75.00
38325;DHT22;24126;52.672;13.622;2023-08-01T09:28:23;25.40;75.00
38325;DHT22;24126;52.672;13.622;2023-08-01T09:30:51;25.50;75.20
38325;DHT22;24126;52.672;13.622;2023-08-01T09:33:20;25.50;75.20
38325;DHT22;24126;52.672;13.622;2023-08-01T09:35:49;25.60;75.20
38325;DHT22;24126;52.672;13.622;2023-08-01T09:38:16;25.70;75.00
38325;DHT22;24126;52.672;13.622;2023-08-01T09:40:44;25.80;75.10
38325;DHT22;24126;52.672;13.622;2023-08-01T09:43:12;25.90;74.80
38325;DHT22;24126;52.672;13.622;2023-08-01T09:45:49;26.10;74.60
38325;DHT22;24126;52.672;13.622;2023-08-01T09:48:23;26.20;73.90
38325;DHT22;24126;52.672;13.622;2023-08-01T09:50:51;26.30;73.80
38325;DHT22;24126;52.672;13.622;2023-08-01T09:53:19;26.40;73.40
38325;DHT22;24126;52.672;13.622;2023-08-01T09:55:46;26.40;72.80
38325;DHT22;24126;52.672;13.622;2023-08-01T09:58:16;26.50;72.80
38325;DHT22;24126;52.672;13.622;2023-08-01T10:00:44;26.50;72.30
38325;DHT22;24126;52.672;13.622;2023-08-01T10:03:11;26.40;71.90
38325;DHT22;24126;52.672;13.622;2023-08-01T10:05:38;26.30;71.90
38325;DHT22;24126;52.672;13.622;2023-08-01T10:08:07;26.20;72.70
38325;DHT22;24126;52.672;13.622;2023-08-01T10:10:34;26.10;72.20
38325;DHT22;24126;52.672;13.622;2023-08-01T10:13:01;26.00;72.20
38325;DHT22;24126;52.672;13.622;2023-08-01T10:15:29;26.00;72.00
38325;DHT22;24126;52.672;13.622;2023-08-01T10:17:56;25.90;72.10
38325;DHT22;24126;52.672;13.622;2023-08-01T10:20:24;25.90;72.50
38325;DHT22;24126;52.672;13.622;2023-08-01T10:22:51;25.80;72.30
38325;DHT22;24126;52.672;13.622;2023-08-01T10:25:18;25.80;72.00
38325;DHT22;24126;52.672;13.622;2023-08-01T10:27:57;25.80;71.80
38325;DHT22;24126;52.672;13.622;2023-08-01T10:30:27;25.80;71.40
38325;DHT22;24126;52.672;13.622;2023-08-01T10:32:55;25.70;71.50
38325;DHT22;24126;52.672;13.622;2023-08-01T10:35:33;25.70;71.60
38325;DHT22;24126;52.672;13.622;2023-08-01T10:38:07;25.60;71.90
38325;DHT22;24126;52.672;13.622;2023-08-01T10:40:35;25.60;71.70
38325;DHT22;24126;52.672;13.622;2023-08-01T10:43:03;25.50;72.10
38325;DHT22;24126;52.672;13.622;2023-08-01T10:45:30;25.60;72.40
38325;DHT22;24126;52.672;13.622;2023-08-01T10:48:07;25.60;72.20
38325;DHT22;24126;52.672;13.622;2023-08-01T10:50:34;25.60;72.00
38325;DHT22;24126;52.672;13.622;2023-08-01T10:53:02;25.50;71.90
38325;DHT22;24126;52.672;13.622;2023-08-01T10:55:40;25.50;71.90
38325;DHT22;24126;52.672;13.622;2023-08-01T10:58:07;25.30;72.10
38325;DHT22;24126;52.672;13.622;2023-08-01T11:00:34;25.30;72.70
38325;DHT22;24126;52.672;13.622;2023-08-01T11:03:01;25.30;72.80
38325;DHT22;24126;52.672;13.622;2023-08-01T11:05:28;25.20;73.00
38325;DHT22;24126;52.672;13.622;2023-08-01T11:07:56;25.20;73.90
38325;DHT22;24126;52.672;13.622;2023-08-01T11:10:25;25.10;73.60
38325;DHT22;24126;52.672;13.622;2023-08-01T11:12:52;25.00;73.80
38325;DHT22;24126;52.672;13.622;2023-08-01T11:15:20;24.90;74.30
38325;DHT22;24126;52.672;13.622;2023-08-01T11:17:48;24.90;74.40
38325;DHT22;24126;52.672;13.622;2023-08-01T11:20:16;24.90;74.50
38325;DHT22;24126;52.672;13.622;2023-08-01T11:22:54;24.80;74.70
38325;DHT22;24126;52.672;13.622;2023-08-01T11:25:34;24.80;74.90
38325;DHT22;24126;52.672;13.622;2023-08-01T11:28:05;24.70;75.10
38325;DHT22;24126;52.672;13.622;2023-08-01T11:30:33;24.70;75.40
38325;DHT22;24126;52.672;13.622;2023-08-01T11:33:01;24.70;75.30
38325;DHT22;24126;52.672;13.622;2023-08-01T11:35:30;24.60;75.00
38325;DHT22;24126;52.672;13.622;2023-08-01T11:37:57;24.60;74.80
38325;DHT22;24126;52.672;13.622;2023-08-01T11:40:24;24.60;74.80
38325;DHT22;24126;52.672;13.622;2023-08-01T11:42:53;24.60;74.80
38325;DHT22;24126;52.672;13.622;2023-08-01T11:45:22;24.70;75.10
38325;DHT22;24126;52.672;13.622;2023-08-01T11:47:50;24.70;75.00
38325;DHT22;24126;52.672;13.622;2023-08-01T11:50:21;24.80;74.90
38325;DHT22;24126;52.672;13.622;2023-08-01T11:52:49;24.80;74.40
38325;DHT22;24126;52.672;13.622;2023-08-01T11:55:23;24.80;74.40
38325;DHT22;24126;52.672;13.622;2023-08-01T11:57:56;24.90;74.30
38325;DHT22;24126;52.672;13.622;2023-08-01T12:00:24;24.90;74.20
38325;DHT22;24126;52.672;13.622;2023-08-01T12:02:52;24.90;74.00
38325;DHT22;24126;52.672;13.622;2023-08-01T12:05:29;25.00;74.20
38325;DHT22;24126;52.672;13.622;2023-08-01T12:08:07;25.00;73.70
38325;DHT22;24126;52.672;13.622;2023-08-01T12:10:52;25.10;73.50
38325;DHT22;24126;52.672;13.622;2023-08-01T12:13:22;25.20;73.70
38325;DHT22;24126;52.672;13.622;2023-08-01T12:15:50;25.30;73.00
38325;DHT22;24126;52.672;13.622;2023-08-01T12:18:27;25.30;72.70
38325;DHT22;24126;52.672;13.622;2023-08-01T12:20:54;25.40;73.00
38325;DHT22;24126;52.672;13.622;2023-08-01T12:23:22;25.40;72.80
38325;DHT22;24126;52.672;13.622;2023-08-01T12:25:49;25.50;72.30
38325;DHT22;24126;52.672;13.622;2023-08-01T12:28:16;25.60;72.10
38325;DHT22;24126;52.672;13.622;2023-08-01T12:30:43;25.70;72.20
38325;DHT22;24126;52.672;13.622;2023-08-01T12:33:10;25.80;72.20
38325;DHT22;24126;52.672;13.622;2023-08-01T12:35:40;25.90;71.80
38325;DHT22;24126;52.672;13.622;2023-08-01T12:38:08;26.00;71.30
38325;DHT22;24126;52.672;13.622;2023-08-01T12:40:35;26.00;70.70
38325;DHT22;24126;52.672;13.622;2023-08-01T12:43:02;26.00;70.40
38325;DHT22;24126;52.672;13.622;2023-08-01T12:45:31;26.10;70.30
38325;DHT22;24126;52.672;13.622;2023-08-01T12:47:58;26.10;69.80
38325;DHT22;24126;52.672;13.622;2023-08-01T12:50:25;26.20;69.60
38325;DHT22;24126;52.672;13.622;2023-08-01T12:52:52;26.20;69.30
38325;DHT22;24126;52.672;13.622;2023-08-01T12:55:19;26.30;69.40
38325;DHT22;24126;52.672;13.622;2023-08-01T12:57:46;26.40;69.50
38325;DHT22;24126;52.672;13.622;2023-08-01T13:00:13;26.50;69.40
38325;DHT22;24126;52.672;13.622;2023-08-01T13:02:41;26.60;68.40
38325;DHT22;24126;52.672;13.622;2023-08-01T13:05:08;26.70;67.10
38325;DHT22;24126;52.672;13.622;2023-08-01T13:07:36;26.60;66.90
38325;DHT22;24126;52.672;13.622;2023-08-01T13:10:03;26.60;66.80
38325;DHT22;24126;52.672;13.622;2023-08-01T13:12:30;26.50;67.10
38325;DHT22;24126;52.672;13.622;2023-08-01T13:14:57;26.50;67.10
38325;DHT22;24126;52.672;13.622;2023-08-01T13:17:24;26.50;66.70
38325;DHT22;24126;52.672;13.622;2023-08-01T13:19:51;26.50;67.20
38325;DHT22;24126;52.672;13.622;2023-08-01T13:22:18;26.50;67.10
38325;DHT22;24126;52.672;13.622;2023-08-01T13:24:45;26.60;66.90
38325;DHT22;24126;52.672;13.622;2023-08-01T13:27:13;26.70;66.60
38325;DHT22;24126;52.672;13.622;2023-08-01T13:29:40;26.70;66.30
38325;DHT22;24126;52.672;13.622;2023-08-01T13:32:07;26.70;66.20
38325;DHT22;24126;52.672;13.622;2023-08-01T13:34:34;26.70;66.40
38325;DHT22;24126;52.672;13.622;2023-08-01T13:37:01;26.80;66.90
38325;DHT22;24126;52.672;13.622;2023-08-01T13:39:28;26.90;67.20
38325;DHT22;24126;52.672;13.622;2023-08-01T13:41:55;26.90;66.90
38325;DHT22;24126;52.672;13.622;2023-08-01T13:44:22;26.90;66.50
38325;DHT22;24126;52.672;13.622;2023-08-01T13:46:49;26.90;66.00
38325;DHT22;24126;52.672;13.622;2023-08-01T13:49:16;27.00;66.30
38325;DHT22;24126;52.672;13.622;2023-08-01T13:51:43;27.00;66.30
38325;DHT22;24126;52.672;13.622;2023-08-01T13:54:12;27.00;66.00
38325;DHT22;24126;52.672;13.622;2023-08-01T13:56:39;27.00;65.40
38325;DHT22;24126;52.672;13.622;2023-08-01T13:59:06;27.00;65.60
38325;DHT22;24126;52.672;13.622;2023-08-01T14:01:34;27.10;65.90
38325;DHT22;24126;52.672;13.622;2023-08-01T14:04:02;27.10;65.90
38325;DHT22;24126;52.672;13.622;2023-08-01T14:06:30;27.10;65.60
38325;DHT22;24126;52.672;13.622;2023-08-01T14:08:57;27.10;65.10
38325;DHT22;24126;52.672;13.622;2023-08-01T14:11:24;27.10;65.10
38325;DHT22;24126;52.672;13.622;2023-08-01T14:13:51;27.20;65.10
38325;DHT22;24126;52.672;13.622;2023-08-01T14:16:18;27.20;64.90
38325;DHT22;24126;52.672;13.622;2023-08-01T14:18:45;27.20;64.70
38325;DHT22;24126;52.672;13.622;2023-08-01T14:21:12;27.20;64.70
38325;DHT22;24126;52.672;13.622;2023-08-01T14:23:39;27.20;64.80
38325;DHT22;24126;52.672;13.622;2023-08-01T14:26:07;27.30;65.40
38325;DHT22;24126;52.672;13.622;2023-08-01T14:28:34;27.30;64.80
38325;DHT22;24126;52.672;13.622;2023-08-01T14:31:02;27.30;64.90
38325;DHT22;24126;52.672;13.622;2023-08-01T14:33:29;27.30;64.80
38325;DHT22;24126;52.672;13.622;2023-08-01T14:35:56;27.40;64.80
38325;DHT22;24126;52.672;13.622;2023-08-01T14:38:23;27.40;65.00
38325;DHT22;24126;52.672;13.622;2023-08-01T14:40:51;27.50;64.50
38325;DHT22;24126;52.672;13.622;2023-08-01T14:46:53;27.50;63.90
38325;DHT22;24126;52.672;13.622;2023-08-01T14:49:21;27.50;64.50
38325;DHT22;24126;52.672;13.622;2023-08-01T14:51:48;27.50;63.10
38325;DHT22;24126;52.672;13.622;2023-08-01T14:54:16;27.40;63.20
38325;DHT22;24126;52.672;13.622;2023-08-01T14:56:43;27.30;63.10
38325;DHT22;24126;52.672;13.622;2023-08-01T14:59:10;27.30;62.80
38325;DHT22;24126;52.672;13.622;2023-08-01T15:01:37;27.20;62.70
38325;DHT22;24126;52.672;13.622;2023-08-01T15:04:05;27.20;62.80
38325;DHT22;24126;52.672;13.622;2023-08-01T15:06:32;27.20;62.20
38325;DHT22;24126;52.672;13.622;2023-08-01T15:08:59;27.20;62.20
38325;DHT22;24126;52.672;13.622;2023-08-01T15:11:26;27.20;62.30
38325;DHT22;24126;52.672;13.622;2023-08-01T15:13:53;27.10;61.80
38325;DHT22;24126;52.672;13.622;2023-08-01T15:16:24;27.10;61.90
38325;DHT22;24126;52.672;13.622;2023-08-01T15:18:51;27.00;61.60
38325;DHT22;24126;52.672;13.622;2023-08-01T15:21:18;26.90;60.90